Flight Track Log - Related Links

Times and Time Zones

All times are in EDT time to prevent confusion due to time zone crossing. See the BJS265 flight status page for this flight to view local times or setup timezone preferences in your user account.

Time Position Orientation Groundspeed Altitude Reporting Facility
EDT Latitude Longitude Course Direction KTS MPH feet Rate Location/Type
Thu 05:35:34 PM 41.1144 -100.6589 158° South 186 214 3,500  Level Denver Center
Thu 05:36:36 PM 41.0669 -100.6494 171° South 206 237 6,900 3,581 Climbing Denver Center
Thu 05:37:38 PM 41.0006 -100.6636 189° South 228 262 10,900 3,339 Climbing Denver Center
Thu 05:38:40 PM 40.9364 -100.6269 157° South 254 292 13,800 2,613 Climbing Denver Center
Thu 05:39:00 PM 40.5177 -100.3636 158° South  Level Estimated
Thu 05:39:42 PM 40.8556 -100.5783 156° South 317 365 16,300  Level Denver Center
Thu 05:40:00 PM 40.4162 -100.3108 158° South  Level Estimated
Thu 05:40:44 PM 40.7525 -100.5189 156° South 352 405 19,600  Level Denver Center
Thu 05:41:00 PM 40.3147 -100.2582 158° South  Level Estimated
Thu 05:41:46 PM 40.6600 -100.4653 156° South 369 425 22,200  Level Denver Center
Thu 05:42:48 PM 40.5483 -100.4000 156° South 389 448 25,200 2,496 Climbing Denver Center
Thu 05:43:51 PM 40.4497 -100.3436 156° South 400 460 27,400 2,448 Climbing Denver Center
Thu 05:44:53 PM 40.3319 -100.2756 156° South 412 474 30,300 2,565 Climbing Denver Center
Thu 05:45:55 PM 40.2317 -100.2175 156° South 411 473 32,700 1,984 Climbing Denver Center
Thu 05:46:57 PM 40.1300 -100.1592 156° South 414 476 34,400 1,597 Climbing Denver Center
Thu 05:47:59 PM 40.0211 -100.0969 156° South 428 493 36,000 1,790 Climbing Denver Center
Thu 05:49:01 PM 39.8864 -100.0217 157° South 438 504 38,100 1,742 Climbing Denver Center
Thu 05:50:03 PM 39.7722 -99.9567 156° South 446 513 39,600 1,403 Climbing Denver Center
Thu 05:51:05 PM 39.6556 -99.8892 156° South 455 524 41,000 677 Climbing Denver Center
Thu 05:52:07 PM 39.5358 -99.8219 157° South 466 536 41,000  Level Denver Center
Thu 05:53:09 PM 39.4086 -99.7492 156° South 479 551 41,000  Level Denver Center
Thu 05:54:11 PM 39.2767 -99.6753 157° South 464 534 41,000  Level Denver Center
Thu 05:55:13 PM 39.1594 -99.6097 157° South 462 532 41,000  Level Denver Center
Thu 05:56:10 PM 39.0444 -99.5544 160° South 465 535 41,000  Level Kansas City Center
Thu 05:57:12 PM 38.9225 -99.4981 160° South 466 536 41,000  Level Kansas City Center
Thu 05:58:14 PM 38.8000 -99.4397 160° South 469 540 41,000  Level Kansas City Center
Thu 05:59:16 PM 38.6756 -99.3819 160° South 474 545 41,000  Level Kansas City Center
Thu 06:00:18 PM 38.5522 -99.3231 160° South 473 544 41,000  Level Kansas City Center
Thu 06:01:21 PM 38.4064 -99.2558 160° South 468 539 41,000  Level Kansas City Center
Thu 06:02:23 PM 38.2833 -99.1997 160° South 469 540 41,000  Level Kansas City Center
Thu 06:03:25 PM 38.1608 -99.1433 160° South 469 540 41,000  Level Kansas City Center
Thu 06:04:27 PM 38.0397 -99.0867 160° South 467 537 41,000  Level Kansas City Center
Thu 06:05:29 PM 37.9172 -99.0311 160° South 468 539 41,000  Level Kansas City Center
Thu 06:06:31 PM 37.7681 -98.9642 160° South 473 544 41,000  Level Kansas City Center
Thu 06:07:33 PM 37.6453 -98.9078 160° South 472 543 41,000  Level Kansas City Center
Thu 06:08:35 PM 37.5272 -98.8547 160° South 461 531 41,000  Level Kansas City Center
Thu 06:09:37 PM 37.4036 -98.7986 160° South 467 537 41,000  Level Kansas City Center
Thu 06:10:39 PM 37.2811 -98.7444 161° South 469 540 41,000  Level Kansas City Center
Thu 06:11:41 PM 37.1558 -98.6864 160° South 474 545 41,000  Level Kansas City Center
Thu 06:12:43 PM 37.0142 -98.6214 160° South 455 524 41,000  Level Kansas City Center
Thu 06:13:45 PM 36.8942 -98.5686 161° South 451 519 41,000  Level Kansas City Center
Thu 06:14:47 PM 36.7736 -98.5144 160° South 455 524 41,000  Level Kansas City Center
Thu 06:15:49 PM 36.6511 -98.4608 161° South 460 529 41,000  Level Kansas City Center
Thu 06:16:51 PM 36.5303 -98.4067 160° South 460 529 41,000  Level Kansas City Center
Thu 06:17:53 PM 36.4114 -98.3544 161° South 454 522 41,000  Level Kansas City Center
Thu 06:18:55 PM 36.2886 -98.3011 161° South 461 531 41,000  Level Kansas City Center
Thu 06:19:57 PM 36.1419 -98.2358 160° South 463 533 41,000  Level Kansas City Center
Thu 06:21:00 PM 36.0203 -98.1825 160° South 461 531 41,000  Level Kansas City Center
Thu 06:22:02 PM 35.8975 -98.1303 161° South 463 533 41,000  Level Kansas City Center
Thu 06:22:34 PM 35.8275 -98.0997 161° South 463 533 41,000  Level Fort Worth Center
Thu 06:23:34 PM 35.7069 -98.0450 160° South 463 533 41,000  Level Fort Worth Center
Thu 06:24:34 PM 35.5861 -98.0031 164° South 463 533 41,000  Level Fort Worth Center
Thu 06:25:34 PM 35.4656 -97.9514 161° South 458 527 41,000  Level Fort Worth Center
Thu 06:26:34 PM 35.3447 -97.9022 162° South 458 527 41,000  Level Fort Worth Center
Thu 06:27:34 PM 35.2239 -97.8506 161° South 463 533 41,000 -700 Level Fort Worth Center
Thu 06:28:34 PM 35.1053 -97.7967 160° South 463 533 39,600 -1,900 Descending Fort Worth Center
Thu 06:29:34 PM 34.9825 -97.7481 162° South 458 527 37,200 -2,400 Descending Fort Worth Center
Thu 06:30:34 PM 34.8553 -97.6919 160° South 463 533 34,800 -2,450 Descending Fort Worth Center
Thu 06:31:34 PM 34.7322 -97.6408 161° South 468 539 32,300 -2,450 Descending Fort Worth Center
Thu 06:32:34 PM 34.6114 -97.5900 161° South 463 533 29,900 -2,350 Descending Fort Worth Center
Thu 06:33:34 PM 34.4906 -97.5394 161° South 463 533 27,600 -2,350 Descending Fort Worth Center
Thu 06:34:34 PM 34.3694 -97.4889 161° South 463 533 25,200 -1,800 Descending Fort Worth Center
Thu 06:35:34 PM 34.2483 -97.4914 181° South 436 502 24,000 -1,050 Descending Fort Worth Center
Thu 06:36:34 PM 34.1317 -97.5189 191° South 429 494 23,100 -1,550 Descending Fort Worth Center
Thu 06:37:34 PM 34.0083 -97.5111 177° South 429 494 20,900 -2,150 Descending Fort Worth Center
Thu 06:38:34 PM 33.8894 -97.5036 177° South 429 494 18,800 -1,950 Descending Fort Worth Center
Thu 06:39:34 PM 33.7853 -97.4933 175° South 429 494 17,000 -1,900 Descending Fort Worth Center
Thu 06:40:34 PM 33.6767 -97.4858 177° South 415 478 15,000 -2,000 Descending Fort Worth Center
Thu 06:41:34 PM 33.5597 -97.4758 176° South 392 451 13,000 -1,900 Descending Fort Worth Center
Thu 06:42:34 PM 33.4783 -97.4683 176° South 354 407 11,200 -2,200 Descending Fort Worth Center
Thu 06:43:34 PM 33.3969 -97.4158 152° Southeast 306 352 8,600 -2,483 Descending Fort Worth Center
Thu 06:44:30 PM 33.3667 -97.3333 114° Southeast 281 323 6,400 -2,121 Descending Dallas / Fort Worth TRACON
Thu 06:45:30 PM 33.3667 -97.2500 90° East 272 313 4,500 -1,579 Descending Dallas / Fort Worth TRACON
Thu 06:46:24 PM 33.3667 -97.1833 90° East 244 281 3,400 -789 Descending Dallas / Fort Worth TRACON
Thu 06:47:24 PM 33.3500 -97.1000 103° East 212 244 3,000 -263 Descending Dallas / Fort Worth TRACON
Thu 06:48:18 PM 33.3333 -97.0333 107° East 205 236 2,900  Descending Dallas / Fort Worth TRACON
Thu 06:49:18 PM 33.3167 -96.9833 112° Southeast 182 209 3,000 44 Climbing Dallas / Fort Worth TRACON
Thu 06:50:34 PM 33.2583 -96.9664 166° South 169 194 3,000 -397 Level Fort Worth Center
Thu 06:51:34 PM 33.2061 -96.9442 160° South 180 207 2,100 -500 Descending Fort Worth Center
Thu 06:52:34 PM 33.1622 -96.9247 160° South 186 214 2,000 -55 Descending Fort Worth Center
Thu 06:53:24 PM 33.1167 -96.9000 156° South 175 201 2,000  Level Dallas / Fort Worth TRACON
Thu 06:54:24 PM 33.0667 -96.8833 164° South 174 200 2,000 -105 Level Dallas / Fort Worth TRACON
Thu 06:55:18 PM 33.0333 -96.8667 157° South 174 200 1,800 -550 Descending Dallas / Fort Worth TRACON
Thu 06:56:24 PM 33.0000 -96.8500 157° South 141 162 900 -818 Descending Dallas / Fort Worth TRACON
Thu 06:58:00 PM 32.9667 -96.8333 149° Southeast  Level FlightAware Approximate
Thu 07:05:00 PM 32.9686 -96.8364 149° Southeast  Level Estimated

Login

Don't have an account? Register now (free) for customized features, flight alerts, and more!